Time;durP1;ratioP1;P1;durP2;ratioP2;P2;SDS_P1;SDS_P2;PMS_P1;PMS_P2;Temp;Humidity;BMP_temperature;BMP_pressure;BME280_temperature;BME280_humidity;BME280_pressure;Samples;Min_cycle;Max_cycle;Signal;HPM_P1;HPM_P2
2022/12/09 00:01:18;;;;;;;38.25;30.50;;;0.20;92.20;;;;;;5015217;28;20042;-76
2022/12/09 00:03:47;;;;;;;39.63;29.92;;;0.20;92.20;;;;;;5017352;28;20095;-75
2022/12/09 00:06:23;;;;;;;36.53;28.45;;;0.10;92.10;;;;;;5009974;28;20040;-75
2022/12/09 00:08:52;;;;;;;41.72;29.30;;;0.10;92.20;;;;;;5009266;28;20772;-75
2022/12/09 00:11:19;;;;;;;36.35;29.88;;;0.10;92.20;;;;;;5019272;28;20045;-77
2022/12/09 00:14:00;;;;;;;36.83;28.65;;;0.20;92.30;;;;;;5008591;28;20037;-76
2022/12/09 00:16:35;;;;;;;39.95;30.95;;;0.20;92.30;;;;;;5022097;28;20033;-76
2022/12/09 00:19:01;;;;;;;39.00;29.67;;;0.20;92.30;;;;;;5014324;28;20049;-75
2022/12/09 00:21:30;;;;;;;40.80;28.98;;;0.20;92.30;;;;;;5006808;28;20028;-75
2022/12/09 00:24:02;;;;;;;38.10;30.40;;;0.20;92.30;;;;;;5008759;28;20045;-77
2022/12/09 00:26:28;;;;;;;36.50;27.15;;;0.20;92.40;;;;;;5012711;28;20029;-76
2022/12/09 00:28:54;;;;;;;32.90;28.13;;;0.30;92.40;;;;;;5015349;28;20412;-75
2022/12/09 00:31:23;;;;;;;36.22;27.73;;;0.40;92.40;;;;;;5015649;28;20075;-79
2022/12/09 00:33:57;;;;;;;35.88;26.92;;;0.40;92.40;;;;;;5024191;28;20393;-78
2022/12/09 00:36:23;;;;;;;34.53;26.83;;;0.40;92.30;;;;;;5017776;28;20026;-76
2022/12/09 00:38:49;;;;;;;37.33;27.75;;;0.50;92.30;;;;;;5017845;28;20087;-75
2022/12/09 00:41:16;;;;;;;35.95;26.45;;;0.50;92.30;;;;;;5019186;28;20077;-77
2022/12/09 00:43:45;;;;;;;38.58;27.02;;;0.50;92.20;;;;;;5017462;28;20478;-75
2022/12/09 00:46:14;;;;;;;33.95;26.77;;;0.60;92.20;;;;;;5016432;28;20037;-78
2022/12/09 00:48:44;;;;;;;35.45;28.95;;;0.60;92.10;;;;;;5023981;28;20039;-77
2022/12/09 00:51:13;;;;;;;39.30;29.35;;;0.60;92.10;;;;;;5010575;28;20046;-75
2022/12/09 00:53:44;;;;;;;43.10;30.38;;;0.60;92.10;;;;;;5017738;28;20057;-78
2022/12/09 00:56:10;;;;;;;38.65;28.73;;;0.60;92.00;;;;;;5023045;28;20142;-78
2022/12/09 00:58:35;;;;;;;40.97;29.85;;;0.60;91.90;;;;;;5014875;28;20026;-76
2022/12/09 01:01:03;;;;;;;34.80;27.65;;;0.60;91.90;;;;;;5016051;28;20072;-77
2022/12/09 01:03:31;;;;;;;37.78;29.33;;;0.50;91.90;;;;;;5016728;28;20091;-78
2022/12/09 01:05:57;;;;;;;34.67;26.30;;;0.60;91.80;;;;;;5021779;28;20125;-76
2022/12/09 01:08:25;;;;;;;35.15;28.25;;;0.60;91.70;;;;;;5003413;28;20120;-76
2022/12/09 01:10:51;;;;;;;36.17;28.70;;;0.60;91.80;;;;;;5015831;28;20046;-78
2022/12/09 01:13:19;;;;;;;35.38;27.83;;;0.60;91.70;;;;;;5011983;28;20211;-75
2022/12/09 01:15:48;;;;;;;34.53;28.30;;;0.60;91.80;;;;;;5014441;28;20507;-76
2022/12/09 01:18:13;;;;;;;33.65;27.50;;;0.60;91.80;;;;;;5013882;28;20029;-77
2022/12/09 01:20:39;;;;;;;33.65;26.52;;;0.70;91.80;;;;;;5018046;28;20040;-76
2022/12/09 01:23:08;;;;;;;36.58;27.40;;;0.70;91.80;;;;;;5013767;28;20108;-77
2022/12/09 01:25:33;;;;;;;38.88;28.08;;;0.70;91.90;;;;;;5020681;28;20032;-75
2022/12/09 01:27:59;;;;;;;33.72;26.58;;;0.70;91.90;;;;;;5011350;28;20041;-75
2022/12/09 01:30:25;;;;;;;33.17;26.98;;;0.70;91.90;;;;;;5016499;28;20064;-77
2022/12/09 01:32:52;;;;;;;30.65;25.13;;;0.70;91.80;;;;;;5009767;28;20495;-75
2022/12/09 01:35:21;;;;;;;34.42;26.67;;;0.70;91.80;;;;;;5018776;28;20101;-75
2022/12/09 01:37:48;;;;;;;33.50;25.10;;;0.70;91.90;;;;;;5017205;28;20371;-79
2022/12/09 01:40:16;;;;;;;34.35;26.38;;;0.70;91.90;;;;;;5018388;28;20470;-77
2022/12/09 01:42:43;;;;;;;32.65;25.67;;;0.60;91.90;;;;;;5015802;28;20462;-76
2022/12/09 01:45:20;;;;;;;33.65;24.83;;;0.60;91.80;;;;;;5010150;28;20046;-79
2022/12/09 01:48:10;;;;;;;36.40;26.88;;;0.60;91.70;;;;;;5019706;28;20224;-78
2022/12/09 01:51:06;;;;;;;34.83;26.90;;;0.50;91.70;;;;;;5011062;28;20042;-76
2022/12/09 01:53:39;;;;;;;33.72;26.02;;;0.50;91.70;;;;;;5014543;28;20026;-78
2022/12/09 01:56:13;;;;;;;32.75;26.15;;;0.50;91.60;;;;;;5017015;28;20033;-77
2022/12/09 01:58:41;;;;;;;32.42;24.83;;;0.40;91.60;;;;;;5020691;28;20029;-76
2022/12/09 02:01:07;;;;;;;34.55;25.90;;;0.40;91.60;;;;;;5017857;28;20026;-76
2022/12/09 02:03:32;;;;;;;36.25;27.85;;;0.40;91.60;;;;;;5014173;28;20131;-76
2022/12/09 02:05:58;;;;;;;34.30;26.08;;;0.40;91.70;;;;;;5020732;28;20132;-77
2022/12/09 02:08:24;;;;;;;32.22;24.30;;;0.40;91.60;;;;;;5017065;28;20497;-78
2022/12/09 02:11:13;;;;;;;31.83;25.27;;;0.30;91.50;;;;;;5024846;28;20080;-76
2022/12/09 02:13:50;;;;;;;31.25;24.58;;;0.30;91.60;;;;;;5019999;28;20038;-78
2022/12/09 02:16:20;;;;;;;33.95;26.10;;;0.30;91.60;;;;;;5010754;28;20053;-77
2022/12/09 02:19:25;;;;;;;32.58;26.40;;;0.20;91.70;;;;;;5015959;28;20033;-77
2022/12/09 02:21:59;;;;;;;36.28;24.98;;;0.20;91.70;;;;;;5010897;28;20513;-74
2022/12/09 02:24:49;;;;;;;29.55;23.67;;;0.20;91.70;;;;;;5014479;28;20470;-74
2022/12/09 02:27:28;;;;;;;32.92;26.92;;;0.20;91.80;;;;;;5017809;28;20025;-76
2022/12/09 02:29:54;;;;;;;36.83;25.73;;;0.20;91.80;;;;;;5011859;28;20077;-77
2022/12/09 02:32:46;;;;;;;34.72;26.48;;;0.20;91.90;;;;;;5012566;28;20558;-76
2022/12/09 02:35:23;;;;;;;36.38;26.00;;;0.20;91.90;;;;;;5011883;28;20026;-77
2022/12/09 02:37:56;;;;;;;36.40;24.95;;;0.20;91.90;;;;;;5016632;28;20036;-75
2022/12/09 02:40:27;;;;;;;33.00;26.15;;;0.20;91.90;;;;;;5023894;28;20448;-75
2022/12/09 02:42:55;;;;;;;34.92;26.27;;;0.20;91.90;;;;;;5025463;28;20034;-76
2022/12/09 02:45:25;;;;;;;33.53;24.92;;;0.10;92.00;;;;;;5027250;28;20081;-76
2022/12/09 02:47:55;;;;;;;36.95;27.17;;;0.10;91.90;;;;;;5024714;28;20108;-74
2022/12/09 02:50:27;;;;;;;39.88;27.35;;;0.10;92.00;;;;;;5021585;28;20738;-76
2022/12/09 02:52:58;;;;;;;33.70;25.65;;;0.10;92.00;;;;;;5021153;28;20084;-75
2022/12/09 02:55:24;;;;;;;34.42;25.85;;;0.00;92.00;;;;;;5017628;28;20033;-75
2022/12/09 02:57:55;;;;;;;32.05;26.80;;;0.00;92.10;;;;;;5024812;28;20567;-75
2022/12/09 03:00:20;;;;;;;31.83;26.98;;;0.00;92.20;;;;;;5021361;28;20034;-75
2022/12/09 03:02:50;;;;;;;32.63;26.90;;;0.00;92.20;;;;;;5023903;28;20340;-74
2022/12/09 03:05:22;;;;;;;34.33;27.08;;;0.10;92.20;;;;;;5015944;28;20049;-78
2022/12/09 03:07:59;;;;;;;31.42;26.20;;;0.10;92.30;;;;;;5023306;28;20467;-78
2022/12/09 03:10:32;;;;;;;38.75;26.95;;;0.10;92.20;;;;;;5023883;28;20157;-75
2022/12/09 03:13:20;;;;;;;36.53;27.90;;;0.10;92.10;;;;;;5018094;28;20066;-75
2022/12/09 03:15:52;;;;;;;33.40;26.98;;;0.10;92.10;;;;;;5027677;28;20033;-75
2022/12/09 03:18:19;;;;;;;33.53;26.80;;;0.10;92.10;;;;;;5022345;28;20399;-74
2022/12/09 03:20:49;;;;;;;37.58;29.20;;;0.10;92.10;;;;;;5017384;28;20123;-77
2022/12/09 03:23:18;;;;;;;41.53;30.08;;;0.10;92.00;;;;;;5017115;28;20556;-77
2022/12/09 03:25:47;;;;;;;36.15;28.55;;;0.20;92.00;;;;;;5022375;28;20025;-75
2022/12/09 03:28:34;;;;;;;37.28;27.85;;;0.20;92.00;;;;;;5015548;28;20172;-74
2022/12/09 03:31:05;;;;;;;35.80;27.13;;;0.20;92.00;;;;;;5011361;28;20129;-75
2022/12/09 03:33:33;;;;;;;37.72;27.55;;;0.20;91.90;;;;;;5017450;28;20035;-74
2022/12/09 03:36:09;;;;;;;36.42;26.13;;;0.20;91.90;;;;;;5017036;28;20576;-74
2022/12/09 03:38:38;;;;;;;38.67;26.30;;;0.20;91.90;;;;;;5021036;28;20367;-77
2022/12/09 03:41:30;;;;;;;34.42;26.02;;;0.30;91.80;;;;;;5027109;28;20029;-75
2022/12/09 03:44:05;;;;;;;34.53;24.42;;;0.30;91.80;;;;;;5021920;28;20057;-76
2022/12/09 03:46:34;;;;;;;38.00;27.38;;;0.30;91.80;;;;;;5018846;28;20025;-76
2022/12/09 03:48:59;;;;;;;41.20;25.60;;;0.30;91.70;;;;;;5021905;28;20621;-75
2022/12/09 03:52:03;;;;;;;35.03;25.52;;;0.40;91.70;;;;;;5019339;28;20408;-77
2022/12/09 03:54:40;;;;;;;38.47;26.17;;;0.30;91.60;;;;;;5016014;28;20060;-75
2022/12/09 03:57:10;;;;;;;38.08;24.40;;;0.30;91.60;;;;;;5020523;28;20025;-74
2022/12/09 03:59:36;;;;;;;32.20;25.00;;;0.40;91.50;;;;;;5025381;28;20029;-78
2022/12/09 04:02:07;;;;;;;32.17;24.02;;;0.30;91.40;;;;;;5009576;28;20060;-74
2022/12/09 04:04:33;;;;;;;34.20;24.88;;;0.30;91.40;;;;;;5020637;28;20170;-77
2022/12/09 04:07:01;;;;;;;35.40;25.00;;;0.30;91.40;;;;;;5021398;28;20068;-75
2022/12/09 04:09:27;;;;;;;40.00;26.08;;;0.30;91.40;;;;;;5021878;28;20025;-75
2022/12/09 04:11:55;;;;;;;35.58;24.67;;;0.30;91.40;;;;;;5015853;28;20037;-75
2022/12/09 04:14:23;;;;;;;36.03;23.05;;;0.30;91.40;;;;;;5020140;28;20053;-76
2022/12/09 04:16:48;;;;;;;35.13;23.27;;;0.20;91.40;;;;;;5017558;28;20499;-75
2022/12/09 04:19:18;;;;;;;32.83;24.05;;;0.20;91.40;;;;;;5014324;28;20030;-74
2022/12/09 04:21:44;;;;;;;37.92;23.52;;;0.20;91.40;;;;;;5016167;28;20037;-77
2022/12/09 04:24:14;;;;;;;35.70;25.08;;;0.20;91.50;;;;;;5017906;28;20477;-76
2022/12/09 04:26:43;;;;;;;35.95;24.30;;;0.20;91.40;;;;;;5018943;28;20033;-76
2022/12/09 04:29:10;;;;;;;35.17;22.88;;;0.20;91.40;;;;;;5023123;28;20188;-76
2022/12/09 04:31:36;;;;;;;39.28;25.38;;;0.10;91.40;;;;;;5015329;28;20037;-75
2022/12/09 04:34:02;;;;;;;40.03;26.02;;;0.10;91.40;;;;;;5017926;28;20030;-75
2022/12/09 04:36:27;;;;;;;33.05;22.67;;;0.10;91.40;;;;;;5011912;28;20037;-76
2022/12/09 04:38:55;;;;;;;35.08;23.70;;;0.10;91.40;;;;;;5013457;28;20067;-76
2022/12/09 04:41:21;;;;;;;34.08;24.42;;;0.20;91.30;;;;;;5024771;28;20040;-75
2022/12/09 04:43:52;;;;;;;35.53;23.88;;;0.10;91.20;;;;;;5024880;28;20459;-77
2022/12/09 04:46:20;;;;;;;32.28;23.30;;;0.10;91.20;;;;;;5012738;28;20021;-74
2022/12/09 04:48:46;;;;;;;32.00;23.20;;;0.20;91.30;;;;;;5016566;28;20030;-77
2022/12/09 04:51:13;;;;;;;34.22;21.80;;;0.20;91.30;;;;;;5010600;28;20076;-78
2022/12/09 04:53:39;;;;;;;34.65;24.05;;;0.20;91.30;;;;;;5015124;28;20385;-76
2022/12/09 04:56:13;;;;;;;33.97;23.08;;;0.10;91.30;;;;;;5016075;28;20053;-80
2022/12/09 04:58:43;;;;;;;33.90;23.50;;;0.20;91.40;;;;;;5016460;28;20041;-77
2022/12/09 05:01:20;;;;;;;30.98;21.52;;;0.20;91.20;;;;;;5014601;28;20374;-75
2022/12/09 05:03:52;;;;;;;33.05;22.85;;;0.20;91.20;;;;;;5013059;28;20454;-75
2022/12/09 05:06:21;;;;;;;33.70;22.42;;;0.20;91.30;;;;;;5030089;28;20037;-75
2022/12/09 05:08:55;;;;;;;32.40;23.20;;;0.20;91.20;;;;;;5020508;28;20108;-74
2022/12/09 05:11:22;;;;;;;33.05;23.77;;;0.20;91.30;;;;;;5009246;28;20917;-77
2022/12/09 05:13:48;;;;;;;34.78;24.17;;;0.20;91.40;;;;;;5012016;28;20409;-75
2022/12/09 05:16:18;;;;;;;34.33;22.30;;;0.20;91.30;;;;;;5010989;28;20095;-77
2022/12/09 05:18:47;;;;;;;33.50;23.60;;;0.20;91.20;;;;;;5009152;28;20040;-78
2022/12/09 05:21:20;;;;;;;33.40;23.45;;;0.20;91.30;;;;;;5016317;28;20033;-75
2022/12/09 05:23:46;;;;;;;33.55;23.10;;;0.20;91.40;;;;;;5012287;28;20038;-78
2022/12/09 05:26:15;;;;;;;35.72;23.90;;;0.30;91.40;;;;;;5009380;28;20417;-78
2022/12/09 05:28:41;;;;;;;32.17;22.42;;;0.30;91.30;;;;;;5014649;28;20026;-77
2022/12/09 05:31:13;;;;;;;35.55;24.83;;;0.30;91.40;;;;;;5017083;28;20021;-74
2022/12/09 05:33:41;;;;;;;33.95;23.23;;;0.30;91.30;;;;;;5009464;28;20033;-75
2022/12/09 05:36:17;;;;;;;34.35;24.50;;;0.30;91.10;;;;;;5010001;28;20034;-78
2022/12/09 05:38:43;;;;;;;33.15;23.42;;;0.30;91.20;;;;;;5014369;28;20093;-78
2022/12/09 05:41:09;;;;;;;35.10;23.40;;;0.30;91.20;;;;;;5004111;28;20026;-77
2022/12/09 05:43:37;;;;;;;35.42;24.85;;;0.30;91.20;;;;;;5011745;28;20044;-75
2022/12/09 05:46:04;;;;;;;33.72;24.42;;;0.30;91.30;;;;;;5010403;28;20032;-76
2022/12/09 05:48:30;;;;;;;33.65;23.10;;;0.30;91.20;;;;;;5013910;28;20095;-75
2022/12/09 05:51:35;;;;;;;35.85;23.92;;;0.30;91.20;;;;;;5015492;28;20546;-78
2022/12/09 05:54:02;;;;;;;41.07;26.27;;;0.30;91.20;;;;;;4971186;28;20057;-78
2022/12/09 05:56:31;;;;;;;36.47;25.27;;;0.20;91.10;;;;;;4978423;28;20117;-75
2022/12/09 05:59:00;;;;;;;33.95;24.77;;;0.20;91.20;;;;;;4996663;28;20045;-75
2022/12/09 06:01:25;;;;;;;36.58;25.55;;;0.20;91.10;;;;;;5015026;28;20443;-77
2022/12/09 06:03:55;;;;;;;34.33;23.48;;;0.20;91.20;;;;;;5004564;28;20116;-78
2022/12/09 06:06:25;;;;;;;34.72;23.67;;;0.20;91.20;;;;;;5010752;28;20038;-75
2022/12/09 06:08:56;;;;;;;38.67;24.30;;;0.20;91.30;;;;;;5017343;28;20025;-77
2022/12/09 06:11:22;;;;;;;38.65;25.70;;;0.20;91.30;;;;;;5019887;28;20116;-76
2022/12/09 06:13:49;;;;;;;34.05;24.10;;;0.20;91.30;;;;;;5030816;28;20025;-75
2022/12/09 06:16:19;;;;;;;40.53;26.00;;;0.20;91.30;;;;;;5025477;28;20029;-76
2022/12/09 06:18:45;;;;;;;38.45;24.63;;;0.20;91.30;;;;;;5019651;28;20417;-77
2022/12/09 06:21:15;;;;;;;35.78;24.17;;;0.30;91.30;;;;;;5027194;28;20407;-74
2022/12/09 06:23:42;;;;;;;39.38;25.35;;;0.20;91.10;;;;;;5009551;28;20053;-75
2022/12/09 06:26:19;;;;;;;37.50;25.63;;;0.30;91.20;;;;;;5014046;28;20525;-74
2022/12/09 06:28:50;;;;;;;38.95;26.80;;;0.30;91.20;;;;;;5022641;28;20371;-76
2022/12/09 06:31:16;;;;;;;38.20;25.98;;;0.30;91.10;;;;;;5013110;28;20042;-75
2022/12/09 06:33:42;;;;;;;41.67;25.88;;;0.20;91.10;;;;;;5017273;28;20044;-75
2022/12/09 06:36:08;;;;;;;43.40;28.77;;;0.20;91.00;;;;;;5014479;28;20037;-78
2022/12/09 06:38:46;;;;;;;;;;;;;;;;;;;;;
2022/12/09 06:41:15;;;;;;;41.95;27.55;;;0.20;91.10;;;;;;5018056;28;20033;-75
2022/12/09 06:43:41;;;;;;;41.35;26.73;;;0.20;91.10;;;;;;5023419;28;20191;-75
2022/12/09 06:46:18;;;;;;;41.60;27.52;;;0.20;91.20;;;;;;5016932;28;20451;-76
2022/12/09 06:48:45;;;;;;;41.63;28.83;;;0.10;91.20;;;;;;5012954;28;20041;-76
2022/12/09 06:51:11;;;;;;;42.33;27.42;;;0.10;91.20;;;;;;5015814;28;20089;-75
2022/12/09 06:53:38;;;;;;;41.90;27.65;;;0.10;91.20;;;;;;5014496;28;20032;-78
2022/12/09 06:56:06;;;;;;;39.70;26.70;;;0.10;91.30;;;;;;5021365;28;20709;-78
2022/12/09 06:58:33;;;;;;;39.53;27.35;;;0.10;91.40;;;;;;5012823;28;20045;-75
2022/12/09 07:01:12;;;;;;;41.90;29.23;;;0.10;91.40;;;;;;5019206;28;20422;-76
2022/12/09 07:03:43;;;;;;;52.22;30.73;;;0.10;91.30;;;;;;5008237;28;20046;-76
2022/12/09 07:06:25;;;;;;;44.28;29.02;;;0.10;91.30;;;;;;5014516;28;20045;-76
2022/12/09 07:08:52;;;;;;;47.47;28.60;;;0.10;91.30;;;;;;5015781;28;20061;-76
2022/12/09 07:11:20;;;;;;;47.03;30.00;;;0.10;91.40;;;;;;5023722;28;20128;-75
2022/12/09 07:13:46;;;;;;;46.28;30.63;;;0.00;91.40;;;;;;5006519;28;20148;-74
2022/12/09 07:16:14;;;;;;;50.55;31.75;;;0.10;91.40;;;;;;5025270;28;20116;-77
2022/12/09 07:18:40;;;;;;;49.10;31.25;;;0.00;91.40;;;;;;5015658;28;20038;-75
2022/12/09 07:21:13;;;;;;;44.90;29.52;;;0.00;91.40;;;;;;5019411;28;20030;-76
2022/12/09 07:23:41;;;;;;;48.42;30.33;;;0.00;91.50;;;;;;5017312;28;20521;-77
2022/12/09 07:26:07;;;;;;;44.55;29.05;;;0.00;91.60;;;;;;5024921;28;20030;-72
2022/12/09 07:28:34;;;;;;;48.45;30.77;;;0.00;91.60;;;;;;5019819;28;20080;-75
2022/12/09 07:31:00;;;;;;;45.13;30.20;;;-3276.70;91.60;;;;;;5011128;28;20026;-73
2022/12/09 07:33:26;;;;;;;46.28;30.13;;;-3276.70;91.60;;;;;;5009439;28;20030;-75
2022/12/09 07:35:56;;;;;;;47.50;29.80;;;-3276.70;91.60;;;;;;5019216;28;20476;-74
2022/12/09 07:38:24;;;;;;;48.90;30.60;;;-3276.70;91.60;;;;;;5016010;28;20033;-75
2022/12/09 07:40:50;;;;;;;50.95;30.95;;;-3276.60;91.70;;;;;;5009234;28;20029;-75
2022/12/09 07:43:21;;;;;;;48.60;30.38;;;-3276.60;91.60;;;;;;5012444;28;20075;-75
2022/12/09 07:45:48;;;;;;;48.05;30.35;;;-3276.60;91.70;;;;;;5010378;28;20591;-75
2022/12/09 07:48:13;;;;;;;49.05;32.30;;;-3276.70;91.70;;;;;;5016409;28;20038;-74
2022/12/09 07:50:41;;;;;;;50.22;31.90;;;-3276.60;91.70;;;;;;5013177;28;20034;-75
2022/12/09 07:53:07;;;;;;;49.55;30.75;;;-3276.60;91.60;;;;;;5013993;28;20165;-75
2022/12/09 07:55:35;;;;;;;46.92;30.10;;;-3276.60;91.60;;;;;;5008018;28;20548;-74
2022/12/09 07:58:00;;;;;;;51.95;30.45;;;-3276.70;91.70;;;;;;5012810;28;20045;-76
2022/12/09 08:00:28;;;;;;;45.85;30.88;;;-3276.70;91.70;;;;;;5010225;28;20025;-73
2022/12/09 08:02:54;;;;;;;47.47;30.65;;;-3276.70;91.70;;;;;;5013329;28;20033;-75
2022/12/09 08:05:20;;;;;;;52.92;30.90;;;-3276.70;91.60;;;;;;5014850;28;20103;-77
2022/12/09 08:07:48;;;;;;;58.15;37.38;;;-3276.70;91.60;;;;;;5008480;28;20368;-79
2022/12/09 08:10:16;;;;;;;58.30;36.53;;;-3276.60;91.50;;;;;;5007497;28;20026;-81
2022/12/09 08:12:44;;;;;;;59.78;36.05;;;-3276.70;91.60;;;;;;5012513;28;20030;-78
2022/12/09 08:15:10;;;;;;;58.53;36.60;;;-3276.70;91.60;;;;;;5011395;28;20041;-78
2022/12/09 08:17:45;;;;;;;58.85;36.28;;;-3276.70;91.50;;;;;;5013090;28;20595;-80
2022/12/09 08:20:11;;;;;;;56.15;37.42;;;-3276.70;91.60;;;;;;5006494;28;20518;-79
2022/12/09 08:22:37;;;;;;;55.80;35.92;;;-3276.60;91.50;;;;;;5020075;28;20512;-80
2022/12/09 08:25:03;;;;;;;56.75;34.97;;;-3276.70;91.60;;;;;;5007949;28;20057;-80
2022/12/09 08:27:33;;;;;;;52.30;33.13;;;-3276.60;91.60;;;;;;5023739;28;20543;-79
2022/12/09 08:30:01;;;;;;;53.67;33.17;;;-3276.70;91.70;;;;;;5011669;28;20065;-80
2022/12/09 08:32:27;;;;;;;53.25;32.83;;;0.00;91.80;;;;;;5016086;28;20036;-80
2022/12/09 08:34:52;;;;;;;52.92;33.72;;;0.00;91.80;;;;;;5011246;28;20356;-79
2022/12/09 08:37:18;;;;;;;57.97;33.95;;;0.10;91.70;;;;;;5009190;28;20112;-80
2022/12/09 08:39:46;;;;;;;55.20;33.25;;;0.10;91.60;;;;;;5011256;28;20033;-80
2022/12/09 08:42:17;;;;;;;54.90;33.10;;;0.20;91.60;;;;;;5018238;28;20045;-79
2022/12/09 08:44:43;;;;;;;52.60;32.25;;;0.30;91.50;;;;;;5019586;28;20045;-80
2022/12/09 08:47:11;;;;;;;51.67;31.20;;;0.40;91.40;;;;;;5011142;28;20060;-80
2022/12/09 08:49:41;;;;;;;57.63;32.95;;;0.50;91.20;;;;;;5008754;28;20040;-80
2022/12/09 08:52:11;;;;;;;55.72;36.03;;;0.60;91.20;;;;;;5013695;28;20439;-80
2022/12/09 08:54:39;;;;;;;53.15;34.42;;;0.70;91.00;;;;;;5012012;28;20101;-79
2022/12/09 08:57:09;;;;;;;57.35;35.47;;;0.80;90.70;;;;;;5014134;28;20045;-78
2022/12/09 08:59:35;;;;;;;51.20;33.42;;;0.90;90.60;;;;;;5013189;28;20045;-74
2022/12/09 09:02:00;;;;;;;54.65;37.08;;;1.00;90.40;;;;;;5008154;28;20038;-79
2022/12/09 09:04:26;;;;;;;59.65;36.08;;;1.10;90.30;;;;;;5015154;28;20056;-78
2022/12/09 09:06:54;;;;;;;48.88;33.42;;;1.20;90.00;;;;;;5015030;28;20041;-76
2022/12/09 09:09:22;;;;;;;51.85;34.20;;;1.50;89.70;;;;;;5010185;28;20323;-78
2022/12/09 09:11:48;;;;;;;48.53;32.08;;;1.60;89.20;;;;;;5022457;28;20060;-77
2022/12/09 09:14:26;;;;;;;;;;;;;;;;;;;;;
2022/12/09 09:16:52;;;;;;;47.28;31.48;;;1.60;87.60;;;;;;5013063;28;20483;-77
2022/12/09 09:19:21;;;;;;;51.13;33.03;;;1.60;87.70;;;;;;5007817;28;20030;-79
2022/12/09 09:21:47;;;;;;;48.83;30.83;;;1.60;87.70;;;;;;5007194;28;20095;-78
2022/12/09 09:24:17;;;;;;;52.10;31.95;;;1.80;88.30;;;;;;5016176;28;20042;-81
2022/12/09 09:26:45;;;;;;;48.67;31.50;;;1.90;87.70;;;;;;5012960;28;20030;-81
2022/12/09 09:29:15;;;;;;;47.28;32.25;;;2.00;87.60;;;;;;5011721;28;20449;-79
2022/12/09 09:31:48;;;;;;;46.20;31.27;;;2.20;87.90;;;;;;5009867;28;20053;-76
2022/12/09 09:34:18;;;;;;;51.10;32.22;;;2.40;87.00;;;;;;5012033;28;20534;-82
2022/12/09 09:36:43;;;;;;;48.72;30.60;;;2.50;86.30;;;;;;5017963;28;20056;-78
2022/12/09 09:39:12;;;;;;;48.10;30.55;;;2.50;86.10;;;;;;5023532;28;20030;-78
2022/12/09 09:42:01;;;;;;;46.10;31.27;;;2.60;85.90;;;;;;5012711;28;20033;-78
2022/12/09 09:44:38;;;;;;;47.67;31.90;;;2.60;85.80;;;;;;5019236;28;20139;-77
2022/12/09 09:47:25;;;;;;;46.25;30.52;;;2.60;85.60;;;;;;5008450;28;20053;-78
2022/12/09 09:50:01;;;;;;;42.90;31.05;;;2.60;84.90;;;;;;5013133;28;20065;-79
2022/12/09 09:52:28;;;;;;;46.70;29.67;;;2.50;85.10;;;;;;5016663;28;20038;-79
2022/12/09 09:54:57;;;;;;;49.38;31.95;;;2.30;84.90;;;;;;5011237;28;20041;-77
2022/12/09 09:57:31;;;;;;;42.10;30.38;;;2.40;85.40;;;;;;5005146;28;20042;-81
2022/12/09 10:00:16;;;;;;;49.20;32.40;;;2.30;85.70;;;;;;5015914;28;20047;-78
2022/12/09 10:02:44;;;;;;;49.97;33.43;;;2.30;85.80;;;;;;5013989;28;20037;-79
2022/12/09 10:05:42;;;;;;;44.67;31.35;;;2.30;85.60;;;;;;5010850;28;20290;-81
2022/12/09 10:08:26;;;;;;;45.97;30.75;;;2.40;86.30;;;;;;5012525;28;20132;-78
2022/12/09 10:10:55;;;;;;;49.03;32.60;;;2.60;86.30;;;;;;5007970;28;20044;-78
2022/12/09 10:13:29;;;;;;;50.05;31.98;;;2.70;85.90;;;;;;5011167;28;20043;-82
2022/12/09 10:16:19;;;;;;;49.72;32.25;;;2.80;86.10;;;;;;5020787;28;20034;-82
2022/12/09 10:19:17;;;;;;;47.05;30.55;;;2.90;85.20;;;;;;5007348;28;20058;-78
2022/12/09 10:21:45;;;;;;;45.65;32.00;;;2.90;84.70;;;;;;5018585;28;20337;-82
2022/12/09 10:24:14;;;;;;;38.90;28.17;;;2.80;84.80;;;;;;5009137;28;20030;-79
2022/12/09 10:26:41;;;;;;;46.20;31.08;;;2.90;85.80;;;;;;5023435;28;20080;-77
2022/12/09 10:29:18;;;;;;;46.17;30.73;;;2.80;85.50;;;;;;5018907;28;20139;-81
2022/12/09 10:31:46;;;;;;;43.05;30.40;;;2.80;85.40;;;;;;5025828;28;20089;-81
2022/12/09 10:34:12;;;;;;;46.33;30.10;;;2.80;85.60;;;;;;5014109;28;20040;-81
2022/12/09 10:36:42;;;;;;;46.55;32.45;;;2.90;86.30;;;;;;5015794;28;20183;-76
2022/12/09 10:39:14;;;;;;;43.00;29.45;;;3.00;85.80;;;;;;5007344;28;20022;-80
2022/12/09 10:44:37;;;;;;;44.17;29.60;;;3.40;85.40;;;;;;5009785;28;20040;-78
2022/12/09 10:47:24;;;;;;;41.55;29.45;;;3.60;84.80;;;;;;5015129;28;20037;-81
2022/12/09 10:49:59;;;;;;;44.80;27.45;;;3.80;84.10;;;;;;4995152;28;20296;-79
2022/12/09 10:52:31;;;;;;;40.58;29.23;;;3.70;82.80;;;;;;5004589;28;20039;-81
2022/12/09 10:55:01;;;;;;;43.42;29.83;;;3.70;83.10;;;;;;5023510;28;20053;-79
2022/12/09 10:57:30;;;;;;;42.25;29.67;;;3.70;82.70;;;;;;5000005;28;20109;-78
2022/12/09 11:00:19;;;;;;;42.78;29.42;;;3.50;82.30;;;;;;4994084;28;20519;-82
2022/12/09 11:02:51;;;;;;;43.08;29.95;;;3.40;83.30;;;;;;4994801;28;20525;-79
2022/12/09 11:05:29;;;;;;;42.15;29.02;;;3.40;83.60;;;;;;5003268;28;20046;-77
2022/12/09 11:07:58;;;;;;;45.88;31.10;;;3.40;83.50;;;;;;4996312;28;20033;-76
2022/12/09 11:10:29;;;;;;;42.72;31.33;;;3.40;83.90;;;;;;4998005;28;20041;-76
2022/12/09 11:13:04;;;;;;;39.45;30.10;;;3.50;84.60;;;;;;5000245;28;20305;-79
2022/12/09 11:15:43;;;;;;;43.85;30.25;;;3.60;84.80;;;;;;5011940;28;20033;-77
2022/12/09 11:18:21;;;;;;;42.45;31.15;;;3.70;83.90;;;;;;5001878;28;20029;-76
2022/12/09 11:21:05;;;;;;;39.80;28.58;;;3.80;83.30;;;;;;4995754;28;20052;-79
2022/12/09 11:23:41;;;;;;;38.05;29.40;;;3.90;83.50;;;;;;4996219;28;20034;-77
2022/12/09 11:26:22;;;;;;;39.40;29.48;;;4.10;83.70;;;;;;4994035;28;20042;-77
2022/12/09 11:28:59;;;;;;;42.33;30.33;;;4.20;83.40;;;;;;4999673;28;20474;-77
2022/12/09 11:31:27;;;;;;;39.53;28.63;;;4.40;83.60;;;;;;4999511;28;20117;-78
2022/12/09 11:33:56;;;;;;;39.50;27.90;;;4.50;83.00;;;;;;5004903;28;20033;-79
2022/12/09 11:36:36;;;;;;;33.58;27.10;;;4.60;82.50;;;;;;4997346;28;20563;-77
2022/12/09 11:39:17;;;;;;;32.45;24.80;;;4.70;82.30;;;;;;4988265;28;20042;-77
2022/12/09 11:44:37;;;;;;;29.98;24.00;;;4.70;81.50;;;;;;4983866;28;20045;-76
2022/12/09 11:47:10;;;;;;;31.48;25.20;;;4.80;82.30;;;;;;4981868;28;20033;-77
2022/12/09 11:49:59;;;;;;;34.05;26.13;;;4.80;81.50;;;;;;4983580;28;20041;-77
2022/12/09 11:52:30;;;;;;;31.70;24.70;;;4.80;82.00;;;;;;4998160;28;20041;-77
2022/12/09 11:55:11;;;;;;;33.13;24.27;;;4.80;81.70;;;;;;5002185;28;20042;-78
2022/12/09 11:57:51;;;;;;;30.40;23.38;;;4.80;82.10;;;;;;4998525;28;20062;-75
2022/12/09 12:00:26;;;;;;;29.08;23.63;;;4.90;82.30;;;;;;5002119;28;20053;-74
2022/12/09 12:03:10;;;;;;;29.58;22.63;;;4.90;82.10;;;;;;5005602;28;20068;-74
2022/12/09 12:05:50;;;;;;;27.92;22.17;;;4.90;82.20;;;;;;4998214;28;20042;-76
2022/12/09 12:08:28;;;;;;;28.17;22.60;;;5.00;81.30;;;;;;5000495;28;20022;-75
2022/12/09 12:11:10;;;;;;;27.83;21.33;;;4.90;80.50;;;;;;5009633;28;20299;-78
2022/12/09 12:13:46;;;;;;;28.38;22.35;;;4.80;81.50;;;;;;5008764;28;20038;-76
2022/12/09 12:16:18;;;;;;;29.10;22.77;;;4.90;82.20;;;;;;4997727;28;20472;-77
2022/12/09 12:19:05;;;;;;;29.83;22.85;;;4.90;82.00;;;;;;5001629;28;20042;-77
2022/12/09 12:22:03;;;;;;;27.42;21.15;;;5.00;82.00;;;;;;5013453;28;20038;-78
2022/12/09 12:24:53;;;;;;;29.20;23.52;;;5.10;81.70;;;;;;5002046;28;20058;-77
2022/12/09 12:27:44;;;;;;;31.38;22.45;;;5.20;80.70;;;;;;5001500;28;20164;-78
2022/12/09 12:30:13;;;;;;;29.20;23.15;;;5.10;80.20;;;;;;4990756;28;20033;-79
2022/12/09 12:33:10;;;;;;;42.10;30.23;;;5.20;80.40;;;;;;4997679;28;20030;-77
2022/12/09 12:35:55;;;;;;;40.53;30.98;;;5.40;80.80;;;;;;4988920;28;20104;-77
2022/12/09 12:38:54;;;;;;;37.47;27.52;;;5.60;80.80;;;;;;4992464;28;20462;-76
2022/12/09 12:41:47;;;;;;;36.40;26.90;;;5.40;80.00;;;;;;4995297;28;20046;-77
2022/12/09 12:47:39;;;;;;;46.85;36.10;;;4.50;82.50;;;;;;4994214;28;20064;-76
2022/12/09 12:50:16;;;;;;;44.13;33.47;;;4.30;83.30;;;;;;4989939;28;20598;-78
2022/12/09 12:52:50;;;;;;;44.03;32.33;;;4.30;84.00;;;;;;4991126;28;20049;-78
2022/12/09 12:55:37;;;;;;;40.53;28.40;;;4.30;84.10;;;;;;4991457;28;20049;-79
2022/12/09 12:58:21;;;;;;;42.72;30.20;;;4.20;83.70;;;;;;4989563;28;20045;-77
2022/12/09 13:01:11;;;;;;;40.83;31.13;;;4.10;84.00;;;;;;5001608;28;20034;-78
2022/12/09 13:04:14;;;;;;;41.42;30.88;;;4.00;84.30;;;;;;4989672;28;20093;-77
2022/12/09 13:06:54;;;;;;;47.08;32.83;;;3.80;84.00;;;;;;4989209;28;20054;-76
2022/12/09 13:10:01;;;;;;;40.95;30.63;;;3.80;84.60;;;;;;4994224;28;20096;-78